PWSweather.com
Personal Weather Stations
Station Observations
SELKIRK1
Ontario, Selkirk, ON N0A 1P0

OntarioSelkirk, ON N0A 1P0

Lat: 42.8083652, Lon: -79.94971040000001

Elevation: 583

Station Type: Acurite 5 in 1

http://gavinsurf.com

High Low Average
Temperature 78.6°F25.9°C 63.7°F17.6°C 73.2°F22.9°C
Dew Point 70.4°F21.3°C 49.7°F9.8°C 66.3°F19.1°C
Winds 8.1 mph 13.0 kmh Calm Calm 3.0 mph SE4.8 kmh SE
Wind Gusts 8.1 mph13.0 kmh -- 4.0 mph6.4 kmh
Humidity 96% 51% 79%
Pressure 29.92 in1013.2 mb 29.92 in1013.2 mb -
Precipitation 0.00 in0.0 mm - -
Hour Temp Dew Point Humidity Winds Wind Gusts Pressure Precip Precip Rate Daily Precip Total
07:35 AM 68.5°F20.3°C 49.7°F9.8°C 51% 4.6 mph NNE7.4 kmh NNE 6.9 mph11.1 kmh 29.92 in1013.2 mb - 0.00 in0.0 mm 0.00 in0.0 mm
07:40 AM 65.9°F18.8°C 61.2°F16.2°C 85% 2.3 mph NNE3.7 kmh NNE 3.5 mph5.6 kmh 29.92 in1013.2 mb - 0.00 in0.0 mm 0.00 in0.0 mm
07:45 AM 67.0°F19.4°C 61.7°F16.5°C 83% 2.3 mph NE3.7 kmh NE 2.3 mph3.7 kmh 29.92 in1013.2 mb - 0.00 in0.0 mm 0.00 in0.0 mm
07:50 AM 67.7°F19.8°C 61.7°F16.5°C 81% 2.3 mph NE3.7 kmh NE 2.3 mph3.7 kmh 29.92 in1013.2 mb - 0.00 in0.0 mm 0.00 in0.0 mm
07:55 AM 68.7°F20.4°C 62.2°F16.8°C 80% 1.2 mph E1.9 kmh E 1.2 mph1.9 kmh 29.92 in1013.2 mb - 0.00 in0.0 mm 0.00 in0.0 mm
08:00 AM 69.5°F20.8°C 63.1°F17.3°C 80% Calm Calm -- 29.92 in1013.2 mb - 0.00 in0.0 mm 0.00 in0.0 mm
08:10 AM 70.7°F21.5°C 63.5°F17.5°C 78% 2.3 mph NE3.7 kmh NE 2.3 mph3.7 kmh 29.92 in1013.2 mb - 0.00 in0.0 mm 0.00 in0.0 mm
08:15 AM 70.7°F21.5°C 63.5°F17.5°C 78% 2.3 mph NNE3.7 kmh NNE 4.6 mph7.4 kmh 29.92 in1013.2 mb - 0.00 in0.0 mm 0.00 in0.0 mm
08:20 AM 71.2°F21.8°C 64.0°F17.8°C 78% 1.2 mph NE1.9 kmh NE 2.3 mph3.7 kmh 29.92 in1013.2 mb - 0.00 in0.0 mm 0.00 in0.0 mm
08:25 AM 71.8°F22.1°C 64.2°F17.9°C 77% 2.3 mph ENE3.7 kmh ENE 3.5 mph5.6 kmh 29.92 in1013.2 mb - 0.00 in0.0 mm 0.00 in0.0 mm
08:30 AM 71.6°F22.0°C 63.6°F17.6°C 76% 2.3 mph NNE3.7 kmh NNE 3.5 mph5.6 kmh 29.92 in1013.2 mb - 0.00 in0.0 mm 0.00 in0.0 mm
08:35 AM 71.8°F22.1°C 63.4°F17.4°C 75% 3.5 mph NNE5.6 kmh NNE 4.6 mph7.4 kmh 29.92 in1013.2 mb - 0.00 in0.0 mm 0.00 in0.0 mm
08:40 AM 72.5°F22.5°C 63.8°F17.7°C 74% 2.3 mph NE3.7 kmh NE 2.3 mph3.7 kmh 29.92 in1013.2 mb - 0.00 in0.0 mm 0.00 in0.0 mm
08:45 AM 72.5°F22.5°C 63.4°F17.4°C 73% 3.5 mph NNE5.6 kmh NNE 4.6 mph7.4 kmh 29.92 in1013.2 mb - 0.00 in0.0 mm 0.00 in0.0 mm
08:50 AM 73.3°F22.9°C 64.1°F17.8°C 73% 2.3 mph NE3.7 kmh NE 1.2 mph1.9 kmh 29.92 in1013.2 mb - 0.00 in0.0 mm 0.00 in0.0 mm
08:55 AM 74.1°F23.4°C 64.1°F17.8°C 71% 2.3 mph ENE3.7 kmh ENE 2.3 mph3.7 kmh 29.92 in1013.2 mb - 0.00 in0.0 mm 0.00 in0.0 mm
09:00 AM 74.9°F23.8°C 64.4°F18.0°C 70% 2.3 mph ENE3.7 kmh ENE 2.3 mph3.7 kmh 29.92 in1013.2 mb - 0.00 in0.0 mm 0.00 in0.0 mm
09:10 AM 75.4°F24.1°C 64.5°F18.1°C 69% 3.5 mph ENE5.6 kmh ENE 4.6 mph7.4 kmh 29.92 in1013.2 mb - 0.00 in0.0 mm 0.00 in0.0 mm
09:15 AM 75.3°F24.1°C 63.6°F17.6°C 67% 3.5 mph NNE5.6 kmh NNE 4.6 mph7.4 kmh 29.92 in1013.2 mb - 0.00 in0.0 mm 0.00 in0.0 mm
09:20 AM 75.6°F24.2°C 64.7°F18.2°C 69% 2.3 mph E3.7 kmh E 1.2 mph1.9 kmh 29.92 in1013.2 mb - 0.00 in0.0 mm 0.00 in0.0 mm
09:25 AM 76.3°F24.6°C 64.9°F18.3°C 68% 2.3 mph ENE3.7 kmh ENE 2.3 mph3.7 kmh 29.92 in1013.2 mb - 0.00 in0.0 mm 0.00 in0.0 mm
09:30 AM 76.5°F24.7°C 63.8°F17.7°C 65% 3.5 mph NNE5.6 kmh NNE 5.8 mph9.3 kmh 29.92 in1013.2 mb - 0.00 in0.0 mm 0.00 in0.0 mm
09:35 AM 75.9°F24.4°C 63.7°F17.6°C 66% 1.2 mph ENE1.9 kmh ENE 2.3 mph3.7 kmh 29.92 in1013.2 mb - 0.00 in0.0 mm 0.00 in0.0 mm
09:40 AM 76.7°F24.8°C 64.5°F18.1°C 66% 1.2 mph NE1.9 kmh NE 3.5 mph5.6 kmh 29.92 in1013.2 mb - 0.00 in0.0 mm 0.00 in0.0 mm
09:45 AM 76.7°F24.8°C 64.9°F18.3°C 67% 1.2 mph E1.9 kmh E 1.2 mph1.9 kmh 29.92 in1013.2 mb - 0.00 in0.0 mm 0.00 in0.0 mm
09:50 AM 77.5°F25.3°C 65.3°F18.5°C 66% 1.2 mph E1.9 kmh E 2.3 mph3.7 kmh 29.92 in1013.2 mb - 0.00 in0.0 mm 0.00 in0.0 mm
09:55 AM 76.7°F24.8°C 63.6°F17.6°C 64% 1.2 mph E1.9 kmh E 2.3 mph3.7 kmh 29.92 in1013.2 mb - 0.00 in0.0 mm 0.00 in0.0 mm
10:00 AM 76.6°F24.8°C 62.6°F17.0°C 62% 2.3 mph E3.7 kmh E 4.6 mph7.4 kmh 29.92 in1013.2 mb - 0.00 in0.0 mm 0.00 in0.0 mm
10:10 AM 76.5°F24.7°C 63.8°F17.7°C 65% 2.3 mph E3.7 kmh E 2.3 mph3.7 kmh 29.92 in1013.2 mb - 0.00 in0.0 mm 0.00 in0.0 mm
10:15 AM 76.0°F24.4°C 65.1°F18.4°C 69% 3.5 mph ESE5.6 kmh ESE 4.6 mph7.4 kmh 29.92 in1013.2 mb - 0.00 in0.0 mm 0.00 in0.0 mm
10:20 AM 75.8°F24.3°C 64.5°F18.1°C 68% 3.5 mph SE5.6 kmh SE 3.5 mph5.6 kmh 29.92 in1013.2 mb - 0.00 in0.0 mm 0.00 in0.0 mm
10:25 AM 76.0°F24.4°C 63.8°F17.7°C 66% 3.5 mph ESE5.6 kmh ESE 3.5 mph5.6 kmh 29.92 in1013.2 mb - 0.00 in0.0 mm 0.00 in0.0 mm
10:35 AM 76.6°F24.8°C 65.2°F18.4°C 68% 2.3 mph ESE3.7 kmh ESE 3.5 mph5.6 kmh 29.92 in1013.2 mb - 0.00 in0.0 mm 0.00 in0.0 mm
10:40 AM 76.5°F24.7°C 66.0°F18.9°C 70% 3.5 mph ESE5.6 kmh ESE 3.5 mph5.6 kmh 29.92 in1013.2 mb - 0.00 in0.0 mm 0.00 in0.0 mm
10:45 AM 76.5°F24.7°C 66.8°F19.3°C 72% 3.5 mph SE5.6 kmh SE 4.6 mph7.4 kmh 29.92 in1013.2 mb - 0.00 in0.0 mm 0.00 in0.0 mm
10:50 AM 76.7°F24.8°C 67.8°F19.9°C 74% 3.5 mph SE5.6 kmh SE 3.5 mph5.6 kmh 29.92 in1013.2 mb - 0.00 in0.0 mm 0.00 in0.0 mm
10:55 AM 76.5°F24.7°C 67.2°F19.6°C 73% 3.5 mph SE5.6 kmh SE 4.6 mph7.4 kmh 29.92 in1013.2 mb - 0.00 in0.0 mm 0.00 in0.0 mm
11:00 AM 76.7°F24.8°C 67.0°F19.4°C 72% 3.5 mph SE5.6 kmh SE 4.6 mph7.4 kmh 29.92 in1013.2 mb - 0.00 in0.0 mm 0.00 in0.0 mm
11:10 AM 77.6°F25.3°C 67.4°F19.7°C 71% 2.3 mph SE3.7 kmh SE 3.5 mph5.6 kmh 29.92 in1013.2 mb - 0.00 in0.0 mm 0.00 in0.0 mm
11:15 AM 77.7°F25.4°C 67.9°F19.9°C 72% 2.3 mph SE3.7 kmh SE 3.5 mph5.6 kmh 29.92 in1013.2 mb - 0.00 in0.0 mm 0.00 in0.0 mm
11:20 AM 78.2°F25.7°C 68.0°F20.0°C 71% 2.3 mph ESE3.7 kmh ESE 3.5 mph5.6 kmh 29.92 in1013.2 mb - 0.00 in0.0 mm 0.00 in0.0 mm
11:25 AM 78.1°F25.6°C 68.7°F20.4°C 73% 3.5 mph SE5.6 kmh SE 4.6 mph7.4 kmh 29.92 in1013.2 mb - 0.00 in0.0 mm 0.00 in0.0 mm
11:30 AM 78.1°F25.6°C 68.7°F20.4°C 73% 4.6 mph SE7.4 kmh SE 4.6 mph7.4 kmh 29.92 in1013.2 mb - 0.00 in0.0 mm 0.00 in0.0 mm
11:35 AM 77.7°F25.4°C 69.1°F20.6°C 75% 4.6 mph SE7.4 kmh SE 4.6 mph7.4 kmh 29.92 in1013.2 mb - 0.00 in0.0 mm 0.00 in0.0 mm
11:40 AM 76.7°F24.8°C 68.2°F20.1°C 75% 3.5 mph SE5.6 kmh SE 5.8 mph9.3 kmh 29.92 in1013.2 mb - 0.00 in0.0 mm 0.00 in0.0 mm
11:45 AM 76.5°F24.7°C 68.0°F20.0°C 75% 2.3 mph SE3.7 kmh SE 4.6 mph7.4 kmh 29.92 in1013.2 mb - 0.00 in0.0 mm 0.00 in0.0 mm
11:50 AM 77.7°F25.4°C 67.9°F19.9°C 72% 3.5 mph E5.6 kmh E 3.5 mph5.6 kmh 29.92 in1013.2 mb - 0.00 in0.0 mm 0.00 in0.0 mm
11:55 AM 78.3°F25.7°C 68.5°F20.3°C 72% 3.5 mph SE5.6 kmh SE 4.6 mph7.4 kmh 29.92 in1013.2 mb - 0.00 in0.0 mm 0.00 in0.0 mm
12:00 PM 77.9°F25.5°C 68.5°F20.3°C 73% 4.6 mph SSE7.4 kmh SSE 4.6 mph7.4 kmh 29.92 in1013.2 mb - 0.00 in0.0 mm 0.00 in0.0 mm
12:10 PM 76.9°F24.9°C 68.0°F20.0°C 74% 3.5 mph SW5.6 kmh SW 3.5 mph5.6 kmh 29.92 in1013.2 mb - 0.00 in0.0 mm 0.00 in0.0 mm
12:15 PM 75.6°F24.2°C 67.9°F19.9°C 77% 3.5 mph SSW5.6 kmh SSW 5.8 mph9.3 kmh 29.92 in1013.2 mb - 0.00 in0.0 mm 0.00 in0.0 mm
12:20 PM 75.3°F24.1°C 68.3°F20.2°C 79% 2.3 mph S3.7 kmh S 3.5 mph5.6 kmh 29.92 in1013.2 mb - 0.00 in0.0 mm 0.00 in0.0 mm
12:25 PM 75.5°F24.2°C 67.0°F19.4°C 75% 3.5 mph SSE5.6 kmh SSE 4.6 mph7.4 kmh 29.92 in1013.2 mb - 0.00 in0.0 mm 0.00 in0.0 mm
12:30 PM 75.0°F23.9°C 66.9°F19.4°C 76% 5.8 mph S9.3 kmh S 5.8 mph9.3 kmh 29.92 in1013.2 mb - 0.00 in0.0 mm 0.00 in0.0 mm
12:35 PM 75.4°F24.1°C 68.4°F20.2°C 79% 2.3 mph SSE3.7 kmh SSE 3.5 mph5.6 kmh 29.92 in1013.2 mb - 0.00 in0.0 mm 0.00 in0.0 mm
12:40 PM 74.7°F23.7°C 68.1°F20.1°C 80% 3.5 mph S5.6 kmh S 4.6 mph7.4 kmh 29.92 in1013.2 mb - 0.00 in0.0 mm 0.00 in0.0 mm
12:45 PM 75.5°F24.2°C 68.1°F20.1°C 78% 2.3 mph S3.7 kmh S 3.5 mph5.6 kmh 29.92 in1013.2 mb - 0.00 in0.0 mm 0.00 in0.0 mm
12:50 PM 74.8°F23.8°C 68.6°F20.3°C 81% 3.5 mph SW5.6 kmh SW 4.6 mph7.4 kmh 29.92 in1013.2 mb - 0.00 in0.0 mm 0.00 in0.0 mm
12:55 PM 76.2°F24.6°C 68.8°F20.4°C 78% 3.5 mph S5.6 kmh S 4.6 mph7.4 kmh 29.92 in1013.2 mb - 0.00 in0.0 mm 0.00 in0.0 mm
01:00 PM 74.4°F23.6°C 68.2°F20.1°C 81% 5.8 mph S9.3 kmh S 5.8 mph9.3 kmh 29.92 in1013.2 mb - 0.00 in0.0 mm 0.00 in0.0 mm
01:10 PM 74.0°F23.3°C 68.2°F20.1°C 82% 5.8 mph SSW9.3 kmh SSW 5.8 mph9.3 kmh 29.92 in1013.2 mb - 0.00 in0.0 mm 0.00 in0.0 mm
01:15 PM 74.0°F23.3°C 67.4°F19.7°C 80% 4.6 mph SW7.4 kmh SW 4.6 mph7.4 kmh 29.92 in1013.2 mb - 0.00 in0.0 mm 0.00 in0.0 mm
01:20 PM 73.9°F23.3°C 67.0°F19.4°C 79% 5.8 mph S9.3 kmh S 5.8 mph9.3 kmh 29.92 in1013.2 mb - 0.00 in0.0 mm 0.00 in0.0 mm
01:25 PM 75.7°F24.3°C 67.6°F19.8°C 76% 6.9 mph S11.1 kmh S 8.1 mph13.0 kmh 29.92 in1013.2 mb - 0.00 in0.0 mm 0.00 in0.0 mm
01:30 PM 74.7°F23.7°C 68.1°F20.1°C 80% 6.9 mph SW11.1 kmh SW 5.8 mph9.3 kmh 29.92 in1013.2 mb - 0.00 in0.0 mm 0.00 in0.0 mm
01:35 PM 74.9°F23.8°C 68.3°F20.2°C 80% 3.5 mph S5.6 kmh S 4.6 mph7.4 kmh 29.92 in1013.2 mb - 0.00 in0.0 mm 0.00 in0.0 mm
01:40 PM 75.9°F24.4°C 68.1°F20.1°C 77% 6.9 mph S11.1 kmh S 8.1 mph13.0 kmh 29.92 in1013.2 mb - 0.00 in0.0 mm 0.00 in0.0 mm
01:45 PM 75.8°F24.3°C 66.9°F19.4°C 74% 6.9 mph SSW11.1 kmh SSW 6.9 mph11.1 kmh 29.92 in1013.2 mb - 0.00 in0.0 mm 0.00 in0.0 mm
01:50 PM 76.3°F24.6°C 67.4°F19.7°C 74% 6.9 mph S11.1 kmh S 6.9 mph11.1 kmh 29.92 in1013.2 mb - 0.00 in0.0 mm 0.00 in0.0 mm
01:55 PM 76.7°F24.8°C 68.2°F20.1°C 75% 5.8 mph SSW9.3 kmh SSW 6.9 mph11.1 kmh 29.92 in1013.2 mb - 0.00 in0.0 mm 0.00 in0.0 mm
02:00 PM 76.7°F24.8°C 68.5°F20.3°C 76% 5.8 mph S9.3 kmh S 5.8 mph9.3 kmh 29.92 in1013.2 mb - 0.00 in0.0 mm 0.00 in0.0 mm
02:10 PM 76.8°F24.9°C 68.3°F20.2°C 75% 4.6 mph SW7.4 kmh SW 5.8 mph9.3 kmh 29.92 in1013.2 mb - 0.00 in0.0 mm 0.00 in0.0 mm
02:15 PM 77.0°F25.0°C 68.1°F20.1°C 74% 4.6 mph SSW7.4 kmh SSW 5.8 mph9.3 kmh 29.92 in1013.2 mb - 0.00 in0.0 mm 0.00 in0.0 mm
02:20 PM 76.6°F24.8°C 68.1°F20.1°C 75% 4.6 mph SW7.4 kmh SW 5.8 mph9.3 kmh 29.92 in1013.2 mb - 0.00 in0.0 mm 0.00 in0.0 mm
02:25 PM 75.6°F24.2°C 67.9°F19.9°C 77% 5.8 mph SSW9.3 kmh SSW 5.8 mph9.3 kmh 29.92 in1013.2 mb - 0.00 in0.0 mm 0.00 in0.0 mm
02:30 PM 75.0°F23.9°C 68.0°F20.0°C 79% 3.5 mph SSW5.6 kmh SSW 4.6 mph7.4 kmh 29.92 in1013.2 mb - 0.00 in0.0 mm 0.00 in0.0 mm
02:35 PM 76.9°F24.9°C 68.8°F20.4°C 76% 5.8 mph SW9.3 kmh SW 5.8 mph9.3 kmh 29.92 in1013.2 mb - 0.00 in0.0 mm 0.00 in0.0 mm
02:40 PM 77.4°F25.2°C 68.5°F20.3°C 74% 5.8 mph SSW9.3 kmh SSW 5.8 mph9.3 kmh 29.92 in1013.2 mb - 0.00 in0.0 mm 0.00 in0.0 mm
02:45 PM 77.7°F25.4°C 68.8°F20.4°C 74% 5.8 mph SSW9.3 kmh SSW 5.8 mph9.3 kmh 29.92 in1013.2 mb - 0.00 in0.0 mm 0.00 in0.0 mm
02:50 PM 77.2°F25.1°C 68.7°F20.4°C 75% 6.9 mph S11.1 kmh S 6.9 mph11.1 kmh 29.92 in1013.2 mb - 0.00 in0.0 mm 0.00 in0.0 mm
02:55 PM 76.3°F24.6°C 68.2°F20.1°C 76% 6.9 mph SW11.1 kmh SW 6.9 mph11.1 kmh 29.92 in1013.2 mb - 0.00 in0.0 mm 0.00 in0.0 mm
03:00 PM 74.7°F23.7°C 68.1°F20.1°C 80% 6.9 mph SSW11.1 kmh SSW 6.9 mph11.1 kmh 29.92 in1013.2 mb - 0.00 in0.0 mm 0.00 in0.0 mm
03:10 PM 76.7°F24.8°C 68.5°F20.3°C 76% 8.1 mph SSW13.0 kmh SSW 8.1 mph13.0 kmh 29.92 in1013.2 mb - 0.00 in0.0 mm 0.00 in0.0 mm
03:15 PM 77.0°F25.0°C 68.8°F20.4°C 76% 6.9 mph SSW11.1 kmh SSW 6.9 mph11.1 kmh 29.92 in1013.2 mb - 0.00 in0.0 mm 0.00 in0.0 mm
03:20 PM 77.1°F25.1°C 68.2°F20.1°C 74% 6.9 mph SSW11.1 kmh SSW 8.1 mph13.0 kmh 29.92 in1013.2 mb - 0.00 in0.0 mm 0.00 in0.0 mm
03:25 PM 76.9°F24.9°C 68.8°F20.4°C 76% 5.8 mph S9.3 kmh S 6.9 mph11.1 kmh 29.92 in1013.2 mb - 0.00 in0.0 mm 0.00 in0.0 mm
03:30 PM 75.8°F24.3°C 68.9°F20.5°C 79% 5.8 mph SSW9.3 kmh SSW 5.8 mph9.3 kmh 29.92 in1013.2 mb - 0.00 in0.0 mm 0.00 in0.0 mm
03:35 PM 75.2°F24.0°C 68.6°F20.3°C 80% 5.8 mph S9.3 kmh S 5.8 mph9.3 kmh 29.92 in1013.2 mb - 0.00 in0.0 mm 0.00 in0.0 mm
03:40 PM 75.2°F24.0°C 68.2°F20.1°C 79% 4.6 mph SSW7.4 kmh SSW 5.8 mph9.3 kmh 29.92 in1013.2 mb - 0.00 in0.0 mm 0.00 in0.0 mm
03:45 PM 74.9°F23.8°C 67.6°F19.8°C 78% 5.8 mph SSW9.3 kmh SSW 5.8 mph9.3 kmh 29.92 in1013.2 mb - 0.00 in0.0 mm 0.00 in0.0 mm
03:50 PM 74.9°F23.8°C 68.7°F20.4°C 81% 4.6 mph S7.4 kmh S 5.8 mph9.3 kmh 29.92 in1013.2 mb - 0.00 in0.0 mm 0.00 in0.0 mm
03:55 PM 75.0°F23.9°C 68.1°F20.1°C 79% 4.6 mph S7.4 kmh S 5.8 mph9.3 kmh 29.92 in1013.2 mb - 0.00 in0.0 mm 0.00 in0.0 mm
04:00 PM 75.6°F24.2°C 68.6°F20.3°C 79% 4.6 mph S7.4 kmh S 4.6 mph7.4 kmh 29.92 in1013.2 mb - 0.00 in0.0 mm 0.00 in0.0 mm
04:10 PM 76.1°F24.5°C 69.1°F20.6°C 79% 3.5 mph SSW5.6 kmh SSW 3.5 mph5.6 kmh 29.92 in1013.2 mb - 0.00 in0.0 mm 0.00 in0.0 mm
04:15 PM 76.1°F24.5°C 68.3°F20.2°C 77% 3.5 mph SE5.6 kmh SE 4.6 mph7.4 kmh 29.92 in1013.2 mb - 0.00 in0.0 mm 0.00 in0.0 mm
04:20 PM 75.4°F24.1°C 67.7°F19.8°C 77% 5.8 mph SSW9.3 kmh SSW 5.8 mph9.3 kmh 29.92 in1013.2 mb - 0.00 in0.0 mm 0.00 in0.0 mm
04:25 PM 74.7°F23.7°C 68.1°F20.1°C 80% 5.8 mph SSW9.3 kmh SSW 5.8 mph9.3 kmh 29.92 in1013.2 mb - 0.00 in0.0 mm 0.00 in0.0 mm
04:30 PM 74.7°F23.7°C 68.5°F20.3°C 81% 3.5 mph SSE5.6 kmh SSE 5.8 mph9.3 kmh 29.92 in1013.2 mb - 0.00 in0.0 mm 0.00 in0.0 mm
04:35 PM 75.6°F24.2°C 69.0°F20.6°C 80% 5.8 mph SSW9.3 kmh SSW 5.8 mph9.3 kmh 29.92 in1013.2 mb - 0.00 in0.0 mm 0.00 in0.0 mm
04:40 PM 76.7°F24.8°C 69.3°F20.7°C 78% 4.6 mph SSW7.4 kmh SSW 5.8 mph9.3 kmh 29.92 in1013.2 mb - 0.00 in0.0 mm 0.00 in0.0 mm
04:45 PM 76.8°F24.9°C 68.7°F20.4°C 76% 4.6 mph SW7.4 kmh SW 4.6 mph7.4 kmh 29.92 in1013.2 mb - 0.00 in0.0 mm 0.00 in0.0 mm
04:50 PM 77.5°F25.3°C 68.5°F20.3°C 74% 4.6 mph SSW7.4 kmh SSW 4.6 mph7.4 kmh 29.92 in1013.2 mb - 0.00 in0.0 mm 0.00 in0.0 mm
04:55 PM 77.6°F25.3°C 68.3°F20.2°C 73% 4.6 mph SSW7.4 kmh SSW 5.8 mph9.3 kmh 29.92 in1013.2 mb - 0.00 in0.0 mm 0.00 in0.0 mm
05:00 PM 77.0°F25.0°C 68.4°F20.2°C 75% 5.8 mph S9.3 kmh S 5.8 mph9.3 kmh 29.92 in1013.2 mb - 0.00 in0.0 mm 0.00 in0.0 mm
05:10 PM 77.5°F25.3°C 69.0°F20.6°C 75% 4.6 mph SSW7.4 kmh SSW 5.8 mph9.3 kmh 29.92 in1013.2 mb - 0.00 in0.0 mm 0.00 in0.0 mm
05:15 PM 77.0°F25.0°C 69.3°F20.7°C 77% 3.5 mph SSW5.6 kmh SSW 3.5 mph5.6 kmh 29.92 in1013.2 mb - 0.00 in0.0 mm 0.00 in0.0 mm
05:20 PM 76.5°F24.7°C 69.5°F20.8°C 79% 3.5 mph SSW5.6 kmh SSW 3.5 mph5.6 kmh 29.92 in1013.2 mb - 0.00 in0.0 mm 0.00 in0.0 mm
05:25 PM 76.0°F24.4°C 70.1°F21.2°C 82% 3.5 mph SSW5.6 kmh SSW 3.5 mph5.6 kmh 29.92 in1013.2 mb - 0.00 in0.0 mm 0.00 in0.0 mm
05:30 PM 77.8°F25.4°C 69.6°F20.9°C 76% 3.5 mph SSW5.6 kmh SSW 4.6 mph7.4 kmh 29.92 in1013.2 mb - 0.00 in0.0 mm 0.00 in0.0 mm
05:35 PM 77.7°F25.4°C 70.3°F21.3°C 78% 3.5 mph SSW5.6 kmh SSW 3.5 mph5.6 kmh 29.92 in1013.2 mb - 0.00 in0.0 mm 0.00 in0.0 mm
05:40 PM 78.3°F25.7°C 69.3°F20.7°C 74% 3.5 mph SSW5.6 kmh SSW 4.6 mph7.4 kmh 29.92 in1013.2 mb - 0.00 in0.0 mm 0.00 in0.0 mm
05:45 PM 78.3°F25.7°C 70.1°F21.2°C 76% 4.6 mph SW7.4 kmh SW 4.6 mph7.4 kmh 29.92 in1013.2 mb - 0.00 in0.0 mm 0.00 in0.0 mm
05:50 PM 78.6°F25.9°C 70.4°F21.3°C 76% 3.5 mph SSW5.6 kmh SSW 4.6 mph7.4 kmh 29.92 in1013.2 mb - 0.00 in0.0 mm 0.00 in0.0 mm
05:55 PM 78.3°F25.7°C 69.3°F20.7°C 74% 3.5 mph SW5.6 kmh SW 4.6 mph7.4 kmh 29.92 in1013.2 mb - 0.00 in0.0 mm 0.00 in0.0 mm
06:00 PM 77.8°F25.4°C 68.1°F20.1°C 72% 4.6 mph SW7.4 kmh SW 5.8 mph9.3 kmh 29.92 in1013.2 mb - 0.00 in0.0 mm 0.00 in0.0 mm
06:10 PM 75.0°F23.9°C 68.4°F20.2°C 80% 4.6 mph SSW7.4 kmh SSW 4.6 mph7.4 kmh 29.92 in1013.2 mb - 0.00 in0.0 mm 0.00 in0.0 mm
06:15 PM 75.4°F24.1°C 68.4°F20.2°C 79% 3.5 mph SW5.6 kmh SW 3.5 mph5.6 kmh 29.92 in1013.2 mb - 0.00 in0.0 mm 0.00 in0.0 mm
06:20 PM 75.4°F24.1°C 68.0°F20.0°C 78% 3.5 mph SSW5.6 kmh SSW 4.6 mph7.4 kmh 29.92 in1013.2 mb - 0.00 in0.0 mm 0.00 in0.0 mm
06:25 PM 75.9°F24.4°C 68.5°F20.3°C 78% 3.5 mph SW5.6 kmh SW 4.6 mph7.4 kmh 29.92 in1013.2 mb - 0.00 in0.0 mm 0.00 in0.0 mm
06:30 PM 76.3°F24.6°C 68.9°F20.5°C 78% 3.5 mph SSW5.6 kmh SSW 4.6 mph7.4 kmh 29.92 in1013.2 mb - 0.00 in0.0 mm 0.00 in0.0 mm
06:35 PM 76.9°F24.9°C 68.4°F20.2°C 75% 2.3 mph WSW3.7 kmh WSW 2.3 mph3.7 kmh 29.92 in1013.2 mb - 0.00 in0.0 mm 0.00 in0.0 mm
06:40 PM 76.9°F24.9°C 67.6°F19.8°C 73% 3.5 mph SW5.6 kmh SW 3.5 mph5.6 kmh 29.92 in1013.2 mb - 0.00 in0.0 mm 0.00 in0.0 mm
06:45 PM 76.6°F24.8°C 68.4°F20.2°C 76% 2.3 mph SW3.7 kmh SW 3.5 mph5.6 kmh 29.92 in1013.2 mb - 0.00 in0.0 mm 0.00 in0.0 mm
06:50 PM 76.7°F24.8°C 67.0°F19.4°C 72% 3.5 mph SW5.6 kmh SW 4.6 mph7.4 kmh 29.92 in1013.2 mb - 0.00 in0.0 mm 0.00 in0.0 mm
06:55 PM 75.9°F24.4°C 67.8°F19.9°C 76% 4.6 mph SSW7.4 kmh SSW 4.6 mph7.4 kmh 29.92 in1013.2 mb - 0.00 in0.0 mm 0.00 in0.0 mm
07:00 PM 76.3°F24.6°C 67.8°F19.9°C 75% 2.3 mph SW3.7 kmh SW 2.3 mph3.7 kmh 29.92 in1013.2 mb - 0.00 in0.0 mm 0.00 in0.0 mm
07:10 PM 75.6°F24.2°C 68.7°F20.4°C 79% 3.5 mph SSW5.6 kmh SSW 3.5 mph5.6 kmh 29.92 in1013.2 mb - 0.00 in0.0 mm 0.00 in0.0 mm
07:15 PM 75.6°F24.2°C 69.0°F20.6°C 80% 3.5 mph SW5.6 kmh SW 3.5 mph5.6 kmh 29.92 in1013.2 mb - 0.00 in0.0 mm 0.00 in0.0 mm
07:20 PM 75.4°F24.1°C 68.8°F20.4°C 80% 2.3 mph SSW3.7 kmh SSW 2.3 mph3.7 kmh 29.92 in1013.2 mb - 0.00 in0.0 mm 0.00 in0.0 mm
07:25 PM 75.3°F24.1°C 69.1°F20.6°C 81% 2.3 mph SSW3.7 kmh SSW 2.3 mph3.7 kmh 29.92 in1013.2 mb - 0.00 in0.0 mm 0.00 in0.0 mm
07:35 PM 75.4°F24.1°C 68.1°F20.1°C 78% 2.3 mph SW3.7 kmh SW 2.3 mph3.7 kmh 29.92 in1013.2 mb - 0.00 in0.0 mm 0.00 in0.0 mm
07:40 PM 75.4°F24.1°C 68.0°F20.0°C 78% Calm Calm 1.2 mph1.9 kmh 29.92 in1013.2 mb - 0.00 in0.0 mm 0.00 in0.0 mm
07:45 PM 75.6°F24.2°C 67.5°F19.7°C 76% 2.3 mph SSW3.7 kmh SSW 4.6 mph7.4 kmh 29.92 in1013.2 mb - 0.00 in0.0 mm 0.00 in0.0 mm
07:50 PM 75.4°F24.1°C 67.7°F19.8°C 77% 1.2 mph SW1.9 kmh SW 1.2 mph1.9 kmh 29.92 in1013.2 mb - 0.00 in0.0 mm 0.00 in0.0 mm
07:55 PM 75.0°F23.9°C 67.7°F19.8°C 78% 2.3 mph WSW3.7 kmh WSW 1.2 mph1.9 kmh 29.92 in1013.2 mb - 0.00 in0.0 mm 0.00 in0.0 mm
08:00 PM 75.0°F23.9°C 67.7°F19.8°C 78% Calm Calm 2.3 mph3.7 kmh 29.92 in1013.2 mb - 0.00 in0.0 mm 0.00 in0.0 mm
08:10 PM 77.1°F25.1°C 68.1°F20.1°C 74% Calm Calm -- 29.92 in1013.2 mb - 0.00 in0.0 mm 0.00 in0.0 mm
08:15 PM 77.0°F25.0°C 68.1°F20.1°C 74% Calm Calm -- 29.92 in1013.2 mb - 0.00 in0.0 mm 0.00 in0.0 mm
08:20 PM 76.3°F24.6°C 67.8°F19.9°C 75% Calm Calm -- 29.92 in1013.2 mb - 0.00 in0.0 mm 0.00 in0.0 mm
08:25 PM 75.7°F24.3°C 67.6°F19.8°C 76% 1.2 mph W1.9 kmh W 1.2 mph1.9 kmh 29.92 in1013.2 mb - 0.00 in0.0 mm 0.00 in0.0 mm
08:30 PM 74.9°F23.8°C 67.6°F19.8°C 78% 1.2 mph W1.9 kmh W 2.3 mph3.7 kmh 29.92 in1013.2 mb - 0.00 in0.0 mm 0.00 in0.0 mm
08:35 PM 74.3°F23.5°C 67.3°F19.6°C 79% 1.2 mph NNE1.9 kmh NNE 2.3 mph3.7 kmh 29.92 in1013.2 mb - 0.00 in0.0 mm 0.00 in0.0 mm
08:40 PM 73.8°F23.2°C 67.6°F19.8°C 81% 1.2 mph NNW1.9 kmh NNW 1.2 mph1.9 kmh 29.92 in1013.2 mb - 0.00 in0.0 mm 0.00 in0.0 mm
08:45 PM 73.2°F22.9°C 67.3°F19.6°C 82% 1.2 mph W1.9 kmh W -- 29.92 in1013.2 mb - 0.00 in0.0 mm 0.00 in0.0 mm
08:50 PM 72.5°F22.5°C 67.0°F19.4°C 83% 1.2 mph N1.9 kmh N 2.3 mph3.7 kmh 29.92 in1013.2 mb - 0.00 in0.0 mm 0.00 in0.0 mm
08:55 PM 71.9°F22.2°C 66.8°F19.3°C 84% 1.2 mph NNW1.9 kmh NNW 1.2 mph1.9 kmh 29.92 in1013.2 mb - 0.00 in0.0 mm 0.00 in0.0 mm
09:00 PM 71.1°F21.7°C 66.3°F19.1°C 85% 1.2 mph NW1.9 kmh NW 1.2 mph1.9 kmh 29.92 in1013.2 mb - 0.00 in0.0 mm 0.00 in0.0 mm
09:10 PM 70.4°F21.3°C 66.0°F18.9°C 86% Calm Calm 1.2 mph1.9 kmh 29.92 in1013.2 mb - 0.00 in0.0 mm 0.00 in0.0 mm
09:15 PM 70.0°F21.1°C 65.6°F18.7°C 86% Calm Calm -- 29.92 in1013.2 mb - 0.00 in0.0 mm 0.00 in0.0 mm
09:20 PM 69.6°F20.9°C 65.6°F18.7°C 87% Calm Calm -- 29.92 in1013.2 mb - 0.00 in0.0 mm 0.00 in0.0 mm
09:25 PM 69.2°F20.7°C 65.5°F18.6°C 88% Calm Calm -- 29.92 in1013.2 mb - 0.00 in0.0 mm 0.00 in0.0 mm
09:30 PM 68.6°F20.3°C 65.2°F18.4°C 89% 2.3 mph NNE3.7 kmh NNE 2.3 mph3.7 kmh 29.92 in1013.2 mb - 0.00 in0.0 mm 0.00 in0.0 mm
09:35 PM 68.4°F20.2°C 65.0°F18.3°C 89% 2.3 mph N3.7 kmh N 2.3 mph3.7 kmh 29.92 in1013.2 mb - 0.00 in0.0 mm 0.00 in0.0 mm
09:40 PM 68.0°F20.0°C 64.6°F18.1°C 89% 2.3 mph N3.7 kmh N 3.5 mph5.6 kmh 29.92 in1013.2 mb - 0.00 in0.0 mm 0.00 in0.0 mm
09:45 PM 67.7°F19.8°C 64.6°F18.1°C 90% 2.3 mph NE3.7 kmh NE 2.3 mph3.7 kmh 29.92 in1013.2 mb - 0.00 in0.0 mm 0.00 in0.0 mm
09:50 PM 67.5°F19.7°C 64.4°F18.0°C 90% Calm Calm -- 29.92 in1013.2 mb - 0.00 in0.0 mm 0.00 in0.0 mm
09:55 PM 67.1°F19.5°C 64.0°F17.8°C 90% 1.2 mph N1.9 kmh N 2.3 mph3.7 kmh 29.92 in1013.2 mb - 0.00 in0.0 mm 0.00 in0.0 mm
10:00 PM 66.8°F19.3°C 64.4°F18.0°C 92% 3.5 mph NNE5.6 kmh NNE 3.5 mph5.6 kmh 29.92 in1013.2 mb - 0.00 in0.0 mm 0.00 in0.0 mm
10:10 PM 66.2°F19.0°C 64.1°F17.8°C 93% 2.3 mph N3.7 kmh N 2.3 mph3.7 kmh 29.92 in1013.2 mb - 0.00 in0.0 mm 0.00 in0.0 mm
10:15 PM 66.0°F18.9°C 63.9°F17.7°C 93% 2.3 mph NNE3.7 kmh NNE 2.3 mph3.7 kmh 29.92 in1013.2 mb - 0.00 in0.0 mm 0.00 in0.0 mm
10:20 PM 65.6°F18.7°C 63.8°F17.7°C 94% 2.3 mph NNE3.7 kmh NNE 2.3 mph3.7 kmh 29.92 in1013.2 mb - 0.00 in0.0 mm 0.00 in0.0 mm
10:25 PM 65.5°F18.6°C 63.7°F17.6°C 94% 2.3 mph N3.7 kmh N 3.5 mph5.6 kmh 29.92 in1013.2 mb - 0.00 in0.0 mm 0.00 in0.0 mm
10:30 PM 65.5°F18.6°C 64.0°F17.8°C 95% 2.3 mph NNE3.7 kmh NNE 3.5 mph5.6 kmh 29.92 in1013.2 mb - 0.00 in0.0 mm 0.00 in0.0 mm
10:35 PM 65.3°F18.5°C 63.8°F17.7°C 95% 2.3 mph NE3.7 kmh NE 2.3 mph3.7 kmh 29.92 in1013.2 mb - 0.00 in0.0 mm 0.00 in0.0 mm
10:40 PM 65.1°F18.4°C 63.6°F17.6°C 95% 2.3 mph N3.7 kmh N 3.5 mph5.6 kmh 29.92 in1013.2 mb - 0.00 in0.0 mm 0.00 in0.0 mm
10:45 PM 65.0°F18.3°C 63.5°F17.5°C 95% 3.5 mph N5.6 kmh N 3.5 mph5.6 kmh 29.92 in1013.2 mb - 0.00 in0.0 mm 0.00 in0.0 mm
10:50 PM 64.8°F18.2°C 63.6°F17.6°C 96% 2.3 mph N3.7 kmh N 3.5 mph5.6 kmh 29.92 in1013.2 mb - 0.00 in0.0 mm 0.00 in0.0 mm
10:55 PM 64.6°F18.1°C 63.4°F17.4°C 96% 3.5 mph NE5.6 kmh NE 3.5 mph5.6 kmh 29.92 in1013.2 mb - 0.00 in0.0 mm 0.00 in0.0 mm
11:00 PM 64.6°F18.1°C 63.4°F17.4°C 96% 2.3 mph NNE3.7 kmh NNE 3.5 mph5.6 kmh 29.92 in1013.2 mb - 0.00 in0.0 mm 0.00 in0.0 mm
11:10 PM 64.6°F18.1°C 63.4°F17.4°C 96% 3.5 mph N5.6 kmh N 3.5 mph5.6 kmh 29.92 in1013.2 mb - 0.00 in0.0 mm 0.00 in0.0 mm
11:15 PM 64.4°F18.0°C 63.2°F17.3°C 96% 3.5 mph NNE5.6 kmh NNE 3.5 mph5.6 kmh 29.92 in1013.2 mb - 0.00 in0.0 mm 0.00 in0.0 mm
11:20 PM 64.4°F18.0°C 63.2°F17.3°C 96% 3.5 mph N5.6 kmh N 3.5 mph5.6 kmh 29.92 in1013.2 mb - 0.00 in0.0 mm 0.00 in0.0 mm
11:25 PM 64.4°F18.0°C 63.2°F17.3°C 96% 3.5 mph N5.6 kmh N 3.5 mph5.6 kmh 29.92 in1013.2 mb - 0.00 in0.0 mm 0.00 in0.0 mm
11:30 PM 64.4°F18.0°C 63.2°F17.3°C 96% 3.5 mph N5.6 kmh N 3.5 mph5.6 kmh 29.92 in1013.2 mb - 0.00 in0.0 mm 0.00 in0.0 mm
11:35 PM 64.1°F17.8°C 62.9°F17.2°C 96% 2.3 mph NNE3.7 kmh NNE 3.5 mph5.6 kmh 29.92 in1013.2 mb - 0.00 in0.0 mm 0.00 in0.0 mm
11:40 PM 63.9°F17.7°C 62.7°F17.1°C 96% 2.3 mph NNE3.7 kmh NNE 2.3 mph3.7 kmh 29.92 in1013.2 mb - 0.00 in0.0 mm 0.00 in0.0 mm
11:45 PM 64.1°F17.8°C 62.6°F17.0°C 95% 3.5 mph NE5.6 kmh NE 3.5 mph5.6 kmh 29.92 in1013.2 mb - 0.00 in0.0 mm 0.00 in0.0 mm
11:50 PM 64.1°F17.8°C 62.6°F17.0°C 95% 3.5 mph N5.6 kmh N 3.5 mph5.6 kmh 29.92 in1013.2 mb - 0.00 in0.0 mm 0.00 in0.0 mm
11:55 PM 64.1°F17.8°C 62.6°F17.0°C 95% 2.3 mph NNE3.7 kmh NNE 2.3 mph3.7 kmh 29.92 in1013.2 mb - 0.00 in0.0 mm 0.00 in0.0 mm